Time;durP1;ratioP1;P1;durP2;ratioP2;P2;SDS_P1;SDS_P2;PMS_P1;PMS_P2;Temp;Humidity;BMP_temperature;BMP_pressure;BME280_temperature;BME280_humidity;BME280_pressure;Samples;Min_cycle;Max_cycle;Signal;HPM_P1;HPM_P2
2022/02/14 00:01:07;;;;;;;6.82;6.13;;;1.30;97.80;;;;;;5043466;28;20655;-68
2022/02/14 00:03:34;;;;;;;6.88;6.25;;;1.20;97.80;;;;;;5045864;28;20580;-67
2022/02/14 00:06:01;;;;;;;7.03;6.43;;;1.20;97.90;;;;;;5044801;28;20288;-68
2022/02/14 00:08:28;;;;;;;6.28;5.68;;;1.10;97.90;;;;;;5044316;28;20619;-67
2022/02/14 00:10:55;;;;;;;6.30;5.70;;;1.10;97.80;;;;;;5047453;28;20215;-67
2022/02/14 00:13:24;;;;;;;7.25;6.57;;;1.10;97.90;;;;;;5045200;28;20590;-67
2022/02/14 00:15:52;;;;;;;7.07;6.45;;;1.10;97.90;;;;;;5042866;28;21049;-68
2022/02/14 00:18:19;;;;;;;7.18;6.57;;;1.00;98.10;;;;;;5044846;28;20205;-67
2022/02/14 00:20:46;;;;;;;6.35;5.85;;;1.00;98.20;;;;;;5042215;28;20219;-67
2022/02/14 00:23:13;;;;;;;5.68;5.18;;;1.00;98.20;;;;;;5043956;28;20199;-68
2022/02/14 00:25:40;;;;;;;6.38;5.78;;;0.90;98.40;;;;;;5044994;28;20231;-68
2022/02/14 00:28:08;;;;;;;6.40;5.90;;;0.90;98.50;;;;;;5045639;28;20565;-68
2022/02/14 00:30:36;;;;;;;6.75;6.15;;;0.90;98.80;;;;;;5041468;28;20226;-68
2022/02/14 00:33:03;;;;;;;6.28;5.78;;;0.90;98.50;;;;;;5042917;28;20223;-67
2022/02/14 00:35:31;;;;;;;6.80;6.30;;;0.90;98.60;;;;;;5040877;28;20938;-68
2022/02/14 00:37:58;;;;;;;5.75;5.22;;;0.90;98.80;;;;;;5042634;28;20248;-68
2022/02/14 00:40:25;;;;;;;6.78;6.18;;;0.90;98.90;;;;;;5041340;28;20615;-67
2022/02/14 00:42:52;;;;;;;6.30;5.70;;;0.90;98.90;;;;;;5043549;28;20207;-67
2022/02/14 00:45:19;;;;;;;6.20;5.63;;;0.90;98.90;;;;;;5043241;28;20776;-68
2022/02/14 00:47:48;;;;;;;6.40;5.90;;;0.80;98.90;;;;;;5043688;28;20203;-68
2022/02/14 00:50:16;;;;;;;6.20;5.60;;;0.90;98.70;;;;;;5040247;28;20716;-68
2022/02/14 00:52:43;;;;;;;6.65;6.05;;;0.90;98.80;;;;;;5045611;28;20197;-68
2022/02/14 00:55:11;;;;;;;6.65;6.15;;;0.90;98.80;;;;;;5040276;28;20222;-68
2022/02/14 00:57:38;;;;;;;6.47;5.97;;;0.90;99.00;;;;;;5044496;28;20233;-68
2022/02/14 01:00:09;;;;;;;6.35;5.85;;;0.90;99.20;;;;;;5040911;28;20644;-68
2022/02/14 01:02:36;;;;;;;6.53;5.93;;;0.80;99.20;;;;;;5042522;28;20202;-68
2022/02/14 01:05:06;;;;;;;5.90;5.50;;;0.80;99.60;;;;;;5042593;28;20284;-68
2022/02/14 01:07:33;;;;;;;5.85;5.35;;;0.80;99.10;;;;;;5041932;28;20340;-68
2022/02/14 01:10:00;;;;;;;6.60;6.10;;;0.80;99.30;;;;;;5041787;28;20229;-68
2022/02/14 01:12:28;;;;;;;5.13;4.70;;;0.70;99.20;;;;;;5041496;28;20195;-67
2022/02/14 01:14:55;;;;;;;5.72;5.22;;;0.70;99.30;;;;;;5040376;28;20296;-68
2022/02/14 01:17:23;;;;;;;5.95;5.45;;;0.70;99.10;;;;;;5040228;28;20198;-68
2022/02/14 01:19:50;;;;;;;6.57;6.07;;;0.80;99.00;;;;;;5045239;28;20207;-68
2022/02/14 01:22:18;;;;;;;5.50;5.10;;;0.70;99.10;;;;;;5046370;28;20202;-68
2022/02/14 01:24:45;;;;;;;6.28;5.68;;;0.70;99.10;;;;;;5046331;28;20191;-68
2022/02/14 01:27:12;;;;;;;6.07;5.60;;;0.70;99.00;;;;;;5047651;28;20323;-67
2022/02/14 01:29:39;;;;;;;6.03;5.53;;;0.70;99.10;;;;;;5046084;28;20194;-67
2022/02/14 01:32:07;;;;;;;6.53;5.95;;;0.60;99.10;;;;;;5045080;28;20758;-68
2022/02/14 01:34:34;;;;;;;6.93;6.32;;;0.60;99.30;;;;;;5045771;28;21043;-68
2022/02/14 01:37:01;;;;;;;6.13;5.53;;;0.60;99.30;;;;;;5045624;28;20281;-68
2022/02/14 01:39:29;;;;;;;6.82;6.22;;;0.60;99.50;;;;;;5045658;28;20207;-68
2022/02/14 01:41:57;;;;;;;5.72;5.32;;;0.50;99.30;;;;;;5044944;28;20222;-67
2022/02/14 01:44:35;;;;;;;6.32;5.78;;;0.50;99.40;;;;;;5043801;28;20199;-67
2022/02/14 01:47:02;;;;;;;5.88;5.47;;;0.50;99.40;;;;;;5046899;28;20534;-67
2022/02/14 01:49:29;;;;;;;6.45;5.95;;;0.50;99.60;;;;;;5046185;28;20195;-67
2022/02/14 01:51:56;;;;;;;6.30;5.80;;;0.50;99.70;;;;;;5046950;28;20697;-67
2022/02/14 01:54:24;;;;;;;5.53;5.03;;;0.50;99.80;;;;;;5048483;28;20621;-68
2022/02/14 01:56:52;;;;;;;6.15;5.65;;;0.40;99.80;;;;;;5047904;28;20577;-67
2022/02/14 01:59:19;;;;;;;6.47;5.97;;;0.40;99.80;;;;;;5051811;28;20199;-67
2022/02/14 02:01:46;;;;;;;6.82;6.28;;;0.50;99.80;;;;;;5049676;28;20223;-68
2022/02/14 02:04:14;;;;;;;6.65;6.15;;;0.40;99.70;;;;;;5053219;28;20708;-68
2022/02/14 02:06:42;;;;;;;6.97;6.30;;;0.40;99.70;;;;;;5052072;28;20615;-67
2022/02/14 02:09:09;;;;;;;7.45;6.85;;;0.40;99.80;;;;;;5048592;28;20207;-68
2022/02/14 02:14:23;;;;;;;6.13;5.63;;;0.40;99.90;;;;;;5043508;28;20578;-67
2022/02/14 02:16:59;;;;;;;6.35;5.75;;;0.30;99.90;;;;;;5044319;28;20219;-68
2022/02/14 02:19:27;;;;;;;6.38;5.88;;;0.40;99.90;;;;;;5044290;28;20214;-67
2022/02/14 02:21:54;;;;;;;5.88;5.47;;;0.30;99.90;;;;;;5044314;28;20710;-67
2022/02/14 02:24:23;;;;;;;6.72;6.20;;;0.30;99.90;;;;;;5044061;28;20194;-67
2022/02/14 02:26:58;;;;;;;6.80;6.20;;;0.20;99.90;;;;;;5045440;28;20285;-67
2022/02/14 02:29:25;;;;;;;7.28;6.68;;;0.20;99.90;;;;;;5042445;28;20217;-67
2022/02/14 02:31:53;;;;;;;6.97;6.47;;;0.20;99.90;;;;;;5045313;28;20218;-67
2022/02/14 02:34:20;;;;;;;6.72;6.20;;;0.20;99.90;;;;;;5044083;28;20215;-67
2022/02/14 02:36:48;;;;;;;6.93;6.35;;;0.20;99.90;;;;;;5042739;28;20223;-67
2022/02/14 02:39:16;;;;;;;6.30;5.80;;;0.10;99.90;;;;;;5042123;28;20199;-67
2022/02/14 02:41:43;;;;;;;7.15;6.55;;;0.20;99.90;;;;;;5043802;28;20242;-67
2022/02/14 02:44:12;;;;;;;6.85;6.32;;;0.10;99.90;;;;;;5042898;28;20191;-67
2022/02/14 02:46:39;;;;;;;5.72;5.32;;;0.10;99.90;;;;;;5043675;28;20227;-67
2022/02/14 02:49:11;;;;;;;6.05;5.55;;;0.10;99.90;;;;;;5043553;28;20288;-66
2022/02/14 02:51:38;;;;;;;6.07;5.50;;;0.20;99.90;;;;;;5041993;28;20254;-68
2022/02/14 02:54:06;;;;;;;6.20;5.65;;;0.20;99.90;;;;;;5042572;28;20741;-68
2022/02/14 02:56:33;;;;;;;6.70;6.10;;;0.10;99.90;;;;;;5044211;28;20284;-67
2022/02/14 02:59:00;;;;;;;7.15;6.45;;;0.10;99.90;;;;;;5044215;28;20253;-67
2022/02/14 03:01:29;;;;;;;6.22;5.75;;;0.10;99.90;;;;;;5041560;28;20234;-67
2022/02/14 03:03:56;;;;;;;7.10;6.50;;;0.00;99.90;;;;;;5043389;28;20603;-67
2022/02/14 03:06:23;;;;;;;6.47;5.93;;;0.00;99.90;;;;;;5044773;28;20222;-67
2022/02/14 03:08:50;;;;;;;7.15;6.55;;;0.00;99.90;;;;;;5043915;28;20332;-68
2022/02/14 03:11:18;;;;;;;6.55;6.05;;;0.00;99.90;;;;;;5039824;28;20950;-67
2022/02/14 03:13:45;;;;;;;7.15;6.45;;;0.00;99.90;;;;;;5041084;28;20211;-67
2022/02/14 03:16:13;;;;;;;6.50;5.90;;;0.10;99.90;;;;;;5041704;28;20649;-67
2022/02/14 03:18:42;;;;;;;7.40;6.70;;;0.10;99.90;;;;;;5044082;28;20297;-67
2022/02/14 03:21:09;;;;;;;6.63;6.13;;;0.00;99.90;;;;;;5040223;28;20662;-66
2022/02/14 03:23:37;;;;;;;5.95;5.55;;;0.10;99.90;;;;;;5043300;28;20701;-68
2022/02/14 03:26:04;;;;;;;7.25;6.65;;;0.00;99.90;;;;;;5039560;28;20219;-67
2022/02/14 03:28:32;;;;;;;6.50;6.00;;;-0.10;99.90;;;;;;5041521;28;20241;-67
2022/02/14 03:30:59;;;;;;;6.30;5.80;;;-0.10;99.90;;;;;;5040976;28;20211;-67
2022/02/14 03:33:26;;;;;;;6.60;6.10;;;-0.20;99.90;;;;;;5044399;28;20203;-66
2022/02/14 03:35:55;;;;;;;6.82;6.32;;;-0.20;99.90;;;;;;5042497;28;21647;-67
2022/02/14 03:38:22;;;;;;;6.43;5.97;;;-0.20;99.90;;;;;;5044015;28;20261;-67
2022/02/14 03:40:49;;;;;;;6.28;5.45;;;-0.20;99.90;;;;;;5042045;28;20240;-67
2022/02/14 03:43:16;;;;;;;6.68;6.13;;;-0.20;99.90;;;;;;5043365;28;20268;-67
2022/02/14 03:45:44;;;;;;;6.35;5.85;;;-0.20;99.90;;;;;;5043589;28;20280;-67
2022/02/14 03:48:11;;;;;;;5.97;5.53;;;-0.20;99.90;;;;;;5039338;28;20256;-67
2022/02/14 03:50:38;;;;;;;6.00;5.47;;;-0.30;99.90;;;;;;5043281;28;20288;-67
2022/02/14 03:53:07;;;;;;;6.38;5.88;;;-0.30;99.90;;;;;;5042747;28;20202;-67
2022/02/14 03:55:34;;;;;;;6.28;5.78;;;-0.20;99.90;;;;;;5043796;28;20238;-67
2022/02/14 03:58:02;;;;;;;6.53;6.03;;;-0.30;99.90;;;;;;5042836;28;20207;-67
2022/02/14 04:00:29;;;;;;;5.20;4.80;;;-0.30;99.90;;;;;;5041903;28;20201;-71
2022/02/14 04:02:56;;;;;;;6.72;6.13;;;-0.30;99.90;;;;;;5041704;28;20198;-67
2022/02/14 04:05:23;;;;;;;6.38;5.88;;;-0.30;99.90;;;;;;5043120;28;20265;-67
2022/02/14 04:07:51;;;;;;;6.75;6.15;;;-0.30;99.90;;;;;;5044469;28;20199;-67
2022/02/14 04:10:20;;;;;;;6.78;6.28;;;-0.30;99.90;;;;;;5041876;28;20573;-67
2022/02/14 04:12:47;;;;;;;6.00;5.55;;;-0.30;99.90;;;;;;5043866;28;20209;-67
2022/02/14 04:15:14;;;;;;;5.97;5.35;;;-0.40;99.90;;;;;;5045131;28;20222;-67
2022/02/14 04:17:42;;;;;;;6.07;5.60;;;-0.40;99.90;;;;;;5041283;28;20223;-67
2022/02/14 04:20:10;;;;;;;5.93;5.43;;;-0.40;99.90;;;;;;5038473;28;20198;-67
2022/02/14 04:22:37;;;;;;;5.70;5.30;;;-0.40;99.90;;;;;;5041398;28;20654;-67
2022/02/14 04:25:04;;;;;;;6.07;5.57;;;-0.40;99.90;;;;;;5042551;28;20201;-67
2022/02/14 04:27:33;;;;;;;5.78;5.28;;;-0.40;99.90;;;;;;5041923;28;20774;-67
2022/02/14 04:30:00;;;;;;;4.70;4.40;;;-0.40;99.90;;;;;;5044292;28;20195;-67
2022/02/14 04:32:27;;;;;;;6.47;5.97;;;-0.40;99.90;;;;;;5043560;28;20226;-67
2022/02/14 04:34:54;;;;;;;5.82;5.32;;;-0.40;99.90;;;;;;5043820;28;20219;-67
2022/02/14 04:37:21;;;;;;;5.45;5.05;;;-0.50;99.90;;;;;;5044944;28;20245;-67
2022/02/14 04:39:48;;;;;;;6.15;5.65;;;-0.50;99.90;;;;;;5041374;28;20195;-67
2022/02/14 04:42:15;;;;;;;6.10;5.60;;;-0.50;99.90;;;;;;5038108;28;20631;-67
2022/02/14 04:44:43;;;;;;;5.60;5.20;;;-0.50;99.90;;;;;;5043611;28;20724;-67
2022/02/14 04:47:10;;;;;;;6.75;6.15;;;-0.50;99.90;;;;;;5040211;28;20261;-67
2022/02/14 04:49:38;;;;;;;5.60;5.20;;;-0.50;99.90;;;;;;5040100;28;20207;-67
2022/02/14 04:52:05;;;;;;;6.40;5.80;;;-0.50;99.90;;;;;;5044628;28;21923;-66
2022/02/14 04:54:32;;;;;;;5.95;5.45;;;-0.50;99.90;;;;;;5043851;28;20219;-67
2022/02/14 04:56:59;;;;;;;6.25;5.70;;;-0.50;99.90;;;;;;5042976;28;20229;-67
2022/02/14 04:59:26;;;;;;;5.57;5.18;;;-0.60;99.90;;;;;;5043472;28;20199;-67
2022/02/14 05:01:55;;;;;;;5.70;5.30;;;-0.60;99.90;;;;;;5042865;28;20648;-67
2022/02/14 05:04:22;;;;;;;5.93;5.50;;;-0.50;99.90;;;;;;5042561;28;20199;-67
2022/02/14 05:06:49;;;;;;;6.15;5.75;;;-0.50;99.90;;;;;;5041399;28;20720;-67
2022/02/14 05:09:16;;;;;;;5.82;5.32;;;-0.50;99.90;;;;;;5040349;28;20575;-67
2022/02/14 05:11:44;;;;;;;5.65;5.25;;;-0.50;99.90;;;;;;5043163;28;20219;-67
2022/02/14 05:14:11;;;;;;;5.75;5.28;;;-0.50;99.90;;;;;;5045333;28;20191;-67
2022/02/14 05:16:38;;;;;;;5.05;4.65;;;-0.50;99.90;;;;;;5039660;28;20486;-67
2022/02/14 05:19:06;;;;;;;5.63;5.00;;;-0.50;99.90;;;;;;5040808;28;20195;-68
2022/02/14 05:21:33;;;;;;;6.07;5.63;;;-0.60;99.90;;;;;;5043486;28;20226;-67
2022/02/14 05:24:00;;;;;;;6.07;5.57;;;-0.60;99.90;;;;;;5043960;28;20533;-67
2022/02/14 05:26:27;;;;;;;6.32;5.93;;;-0.60;99.90;;;;;;5041260;28;20713;-67
2022/02/14 05:28:55;;;;;;;7.10;6.50;;;-0.70;99.90;;;;;;5042894;28;20210;-68
2022/02/14 05:31:23;;;;;;;6.97;6.38;;;-0.70;99.90;;;;;;5042221;28;20603;-67
2022/02/14 05:33:50;;;;;;;7.32;6.60;;;-0.70;99.90;;;;;;5041061;28;20195;-67
2022/02/14 05:36:19;;;;;;;6.85;6.22;;;-0.80;99.90;;;;;;5085488;22;20257;-76
2022/02/14 05:38:47;;;;;;;6.43;5.93;;;-0.80;99.90;;;;;;5045769;28;20212;-75
2022/02/14 05:41:15;;;;;;;6.63;6.13;;;-0.80;99.90;;;;;;5043957;28;20219;-77
2022/02/14 05:43:42;;;;;;;6.22;5.72;;;-0.80;99.90;;;;;;5045110;28;20606;-76
2022/02/14 05:46:13;;;;;;;5.78;5.35;;;-0.80;99.90;;;;;;5042370;28;20233;-76
2022/02/14 05:48:42;;;;;;;6.50;6.00;;;-0.80;99.90;;;;;;5037998;28;20909;-77
2022/02/14 05:51:09;;;;;;;5.75;5.35;;;-0.80;99.90;;;;;;5038362;28;20226;-76
2022/02/14 05:53:38;;;;;;;7.15;6.43;;;-0.80;99.90;;;;;;5040891;28;20298;-76
2022/02/14 05:56:06;;;;;;;6.82;6.22;;;-0.70;99.90;;;;;;5037091;28;20748;-77
2022/02/14 05:58:34;;;;;;;7.10;6.43;;;-0.70;99.90;;;;;;5038847;28;20199;-75
2022/02/14 06:01:01;;;;;;;7.38;6.78;;;-0.80;99.90;;;;;;5036599;28;20231;-76
2022/02/14 06:03:28;;;;;;;7.60;6.90;;;-0.80;99.90;;;;;;5043087;28;20202;-76
2022/02/14 06:05:55;;;;;;;6.53;6.03;;;-0.80;99.90;;;;;;5039888;28;20203;-76
2022/02/14 06:08:22;;;;;;;6.53;6.03;;;-0.80;99.90;;;;;;5046527;28;20639;-77
2022/02/14 06:10:51;;;;;;;6.63;6.13;;;-0.80;99.90;;;;;;5045112;28;20325;-77
2022/02/14 06:13:18;;;;;;;7.35;6.20;;;-0.80;99.90;;;;;;5046015;28;20203;-77
2022/02/14 06:15:45;;;;;;;6.43;5.93;;;-0.80;99.90;;;;;;5044436;28;20297;-76
2022/02/14 06:18:12;;;;;;;6.75;6.15;;;-0.80;99.90;;;;;;5047472;28;20229;-76
2022/02/14 06:20:39;;;;;;;6.38;5.88;;;-0.90;99.90;;;;;;5041567;28;20270;-76
2022/02/14 06:23:06;;;;;;;6.65;6.15;;;-0.90;99.90;;;;;;5044995;28;20604;-76
2022/02/14 06:25:33;;;;;;;5.93;5.45;;;-0.90;99.90;;;;;;5042866;28;20600;-76
2022/02/14 06:28:02;;;;;;;6.00;5.60;;;-0.90;99.90;;;;;;5046989;28;20215;-76
2022/02/14 06:30:29;;;;;;;6.25;5.75;;;-0.90;99.90;;;;;;5054013;28;20229;-77
2022/02/14 06:32:56;;;;;;;5.45;5.05;;;-0.80;99.90;;;;;;5047267;28;20226;-75
2022/02/14 06:35:23;;;;;;;5.70;5.30;;;-0.90;99.90;;;;;;5046632;28;20269;-76
2022/02/14 06:37:50;;;;;;;4.82;4.47;;;-0.80;99.90;;;;;;5045906;28;20276;-77
2022/02/14 06:40:18;;;;;;;4.88;4.47;;;-0.80;99.90;;;;;;5045680;28;20550;-76
2022/02/14 06:42:47;;;;;;;5.13;4.70;;;-0.80;99.90;;;;;;5042258;28;20294;-76
2022/02/14 06:45:17;;;;;;;5.47;5.07;;;-0.70;99.90;;;;;;5045992;28;20287;-77
2022/02/14 06:47:44;;;;;;;6.28;5.78;;;-0.70;99.90;;;;;;5040886;28;20238;-75
2022/02/14 06:50:12;;;;;;;6.88;6.28;;;-0.70;99.90;;;;;;5046026;28;20609;-76
2022/02/14 06:52:39;;;;;;;6.75;6.15;;;-0.70;99.90;;;;;;5041092;28;20235;-77
2022/02/14 06:55:08;;;;;;;7.40;6.70;;;-0.70;99.90;;;;;;5043238;28;20226;-76
2022/02/14 06:57:36;;;;;;;6.53;5.93;;;-0.70;99.90;;;;;;5030056;28;20226;-76
2022/02/14 07:00:07;;;;;;;7.18;6.15;;;-0.70;99.90;;;;;;5038773;28;20231;-76
2022/02/14 07:02:36;;;;;;;6.35;5.85;;;-0.70;99.90;;;;;;5041353;28;20259;-76
2022/02/14 07:05:04;;;;;;;6.35;5.85;;;-0.60;99.90;;;;;;5038360;28;20199;-75
2022/02/14 07:07:31;;;;;;;5.63;5.22;;;-0.60;99.90;;;;;;5037910;28;20702;-75
2022/02/14 07:09:58;;;;;;;5.07;4.68;;;-0.50;99.90;;;;;;5041046;28;20199;-75
2022/02/14 07:12:25;;;;;;;5.70;5.20;;;-0.50;99.90;;;;;;5042733;28;20226;-75
2022/02/14 07:14:52;;;;;;;6.25;5.65;;;-0.50;99.90;;;;;;5042169;28;20461;-75
2022/02/14 07:17:19;;;;;;;6.18;5.68;;;-0.40;99.90;;;;;;5036803;28;20285;-75
2022/02/14 07:19:48;;;;;;;5.97;5.38;;;-0.30;99.90;;;;;;5039745;28;20653;-75
2022/02/14 07:22:15;;;;;;;6.93;6.43;;;-0.30;99.90;;;;;;5036940;28;20292;-76
2022/02/14 07:24:42;;;;;;;6.75;6.22;;;-0.30;99.90;;;;;;5042731;28;20207;-76
2022/02/14 07:27:09;;;;;;;6.22;5.63;;;-0.10;99.90;;;;;;5044082;28;20230;-76
2022/02/14 07:29:36;;;;;;;6.38;5.85;;;-0.10;99.90;;;;;;5037231;28;20200;-75
2022/02/14 07:32:04;;;;;;;6.43;5.93;;;-0.10;99.90;;;;;;5038748;28;20223;-74
2022/02/14 07:34:31;;;;;;;6.80;6.30;;;0.30;99.90;;;;;;5040048;28;20214;-75
2022/02/14 07:37:02;;;;;;;6.60;6.10;;;0.70;99.90;;;;;;5034116;28;20396;-76
2022/02/14 07:39:29;;;;;;;7.03;6.38;;;1.20;99.90;;;;;;5036921;28;20199;-77
2022/02/14 07:41:57;;;;;;;7.38;6.78;;;1.90;99.80;;;;;;5038170;28;20226;-77
2022/02/14 07:44:24;;;;;;;6.18;5.68;;;2.40;98.70;;;;;;5037519;28;20190;-77
2022/02/14 07:46:52;;;;;;;7.18;6.57;;;2.90;97.60;;;;;;5031887;28;20321;-75
2022/02/14 07:49:20;;;;;;;6.72;6.22;;;3.20;97.30;;;;;;5036547;28;20187;-73
2022/02/14 07:51:47;;;;;;;6.85;6.15;;;3.70;97.20;;;;;;5034574;28;20215;-74
2022/02/14 07:54:16;;;;;;;7.28;6.57;;;4.10;96.40;;;;;;5034370;28;20190;-77
2022/02/14 07:56:43;;;;;;;6.97;6.38;;;4.40;95.80;;;;;;5039407;28;20717;-74
2022/02/14 07:59:10;;;;;;;6.88;6.28;;;4.60;95.00;;;;;;5034751;28;20210;-73
2022/02/14 08:01:38;;;;;;;7.35;6.57;;;4.70;94.80;;;;;;5037109;28;20256;-74
2022/02/14 08:04:06;;;;;;;9.15;6.53;;;4.90;94.50;;;;;;5037990;28;20288;-77
2022/02/14 08:06:34;;;;;;;6.80;6.10;;;5.20;94.50;;;;;;5037181;28;20234;-75
2022/02/14 08:09:01;;;;;;;6.35;5.85;;;5.70;94.20;;;;;;5036148;28;20503;-74
2022/02/14 08:11:30;;;;;;;6.45;5.85;;;6.00;93.80;;;;;;5038173;28;20203;-78
2022/02/14 08:13:57;;;;;;;6.63;6.03;;;6.20;93.20;;;;;;5039563;28;20198;-73
2022/02/14 08:16:24;;;;;;;6.88;6.35;;;6.60;93.30;;;;;;5040237;28;20568;-76
2022/02/14 08:18:51;;;;;;;6.65;6.05;;;6.80;92.80;;;;;;5048249;28;20214;-75
2022/02/14 08:21:18;;;;;;;8.77;6.13;;;7.10;92.70;;;;;;5042345;28;20198;-74
2022/02/14 08:23:45;;;;;;;6.55;6.03;;;7.20;92.00;;;;;;5037398;28;20203;-73
2022/02/14 08:26:12;;;;;;;6.40;5.80;;;7.50;92.20;;;;;;5038424;28;20199;-73
2022/02/14 08:28:41;;;;;;;5.78;5.38;;;7.90;92.00;;;;;;5033351;28;20261;-75
2022/02/14 08:31:08;;;;;;;7.40;4.97;;;8.20;91.30;;;;;;5037665;28;20527;-74
2022/02/14 08:33:35;;;;;;;5.93;5.43;;;8.40;90.80;;;;;;5038533;28;20238;-74
2022/02/14 08:36:02;;;;;;;5.70;5.30;;;8.70;90.50;;;;;;5035470;28;20696;-73
2022/02/14 08:38:31;;;;;;;6.95;5.78;;;8.60;90.30;;;;;;5038089;28;20226;-74
2022/02/14 08:40:58;;;;;;;6.05;5.50;;;8.60;90.20;;;;;;5032509;28;20341;-75
2022/02/14 08:43:25;;;;;;;5.72;5.13;;;8.80;90.30;;;;;;5035803;28;20226;-73
2022/02/14 08:45:54;;;;;;;6.05;5.45;;;8.80;88.80;;;;;;5038224;28;20195;-74
2022/02/14 08:48:21;;;;;;;5.72;5.25;;;8.70;90.00;;;;;;5036651;28;20881;-75
2022/02/14 08:50:49;;;;;;;7.07;5.53;;;8.60;90.00;;;;;;5035575;28;20200;-75
2022/02/14 08:53:17;;;;;;;7.88;5.72;;;8.70;90.20;;;;;;5034764;28;20227;-74
2022/02/14 08:55:44;;;;;;;5.70;5.20;;;8.80;90.40;;;;;;5038186;28;20608;-74
2022/02/14 08:58:11;;;;;;;6.22;5.63;;;9.10;90.50;;;;;;5035074;28;20561;-74
2022/02/14 09:00:38;;;;;;;5.88;5.28;;;9.50;90.00;;;;;;5032889;28;20288;-74
2022/02/14 09:03:07;;;;;;;7.38;5.70;;;9.80;89.60;;;;;;5037875;28;20688;-75
2022/02/14 09:05:34;;;;;;;5.25;4.70;;;9.90;88.60;;;;;;5035274;28;20207;-73
2022/02/14 09:08:01;;;;;;;7.82;6.05;;;10.10;88.00;;;;;;5036727;28;20233;-73
2022/02/14 09:10:28;;;;;;;5.63;5.10;;;9.90;87.60;;;;;;5035210;28;20483;-75
2022/02/14 09:12:55;;;;;;;6.07;5.47;;;9.90;88.60;;;;;;5048835;28;20226;-74
2022/02/14 09:15:22;;;;;;;6.10;5.55;;;9.70;88.90;;;;;;5039415;28;20682;-75
2022/02/14 09:17:49;;;;;;;5.93;5.32;;;9.60;89.10;;;;;;5034487;28;20227;-75
2022/02/14 09:20:23;;;;;;;5.82;5.32;;;9.80;90.00;;;;;;5036707;28;20709;-75
2022/02/14 09:22:50;;;;;;;6.72;5.60;;;10.10;88.50;;;;;;5036373;28;20218;-75
2022/02/14 09:25:17;;;;;;;5.40;4.90;;;10.20;88.20;;;;;;5035110;28;20636;-75
2022/02/14 09:27:44;;;;;;;5.50;4.95;;;10.50;88.00;;;;;;5033813;28;20241;-75
2022/02/14 09:30:12;;;;;;;5.55;5.00;;;10.40;87.50;;;;;;5033954;28;20203;-73
2022/02/14 09:32:39;;;;;;;6.18;5.10;;;10.00;87.30;;;;;;5031729;28;20230;-74
2022/02/14 09:35:08;;;;;;;6.15;5.13;;;9.70;88.70;;;;;;5033415;28;20603;-75
2022/02/14 09:37:36;;;;;;;5.25;4.75;;;9.90;88.90;;;;;;5035179;28;20230;-75
2022/02/14 09:40:06;;;;;;;6.22;5.63;;;9.90;87.10;;;;;;5035434;28;20206;-73
2022/02/14 09:42:33;;;;;;;6.45;5.72;;;10.10;87.30;;;;;;5042859;28;20231;-74
2022/02/14 09:45:00;;;;;;;6.25;5.65;;;10.30;86.30;;;;;;5040602;28;20573;-75
2022/02/14 09:47:27;;;;;;;7.25;5.30;;;10.60;86.40;;;;;;5040502;28;20273;-75
2022/02/14 09:49:55;;;;;;;7.38;5.32;;;10.60;85.60;;;;;;5036215;28;20210;-75
2022/02/14 09:52:23;;;;;;;6.03;5.43;;;10.30;85.90;;;;;;5036919;28;20242;-75
2022/02/14 09:54:51;;;;;;;6.22;5.63;;;10.20;86.50;;;;;;5037050;28;20253;-74
2022/02/14 09:57:19;;;;;;;6.97;5.85;;;10.00;87.20;;;;;;5039087;28;20226;-75
2022/02/14 09:59:46;;;;;;;7.40;6.10;;;10.30;87.70;;;;;;5037729;28;20672;-73
2022/02/14 10:02:20;;;;;;;6.32;5.72;;;10.50;86.20;;;;;;5037428;28;20226;-75
2022/02/14 10:05:05;;;;;;;6.28;5.68;;;10.40;85.80;;;;;;5040092;28;20221;-74
2022/02/14 10:07:43;;;;;;;5.82;5.22;;;10.20;86.50;;;;;;5057140;28;20253;-74
2022/02/14 10:10:15;;;;;;;8.35;5.80;;;10.10;86.30;;;;;;5039120;28;20201;-75
2022/02/14 10:12:45;;;;;;;6.95;5.45;;;9.80;86.70;;;;;;5037067;28;20721;-75
2022/02/14 10:15:12;;;;;;;5.85;5.15;;;9.70;86.00;;;;;;5033268;28;20204;-74
2022/02/14 10:17:41;;;;;;;6.13;5.53;;;10.10;85.30;;;;;;5038194;28;20247;-76
2022/02/14 10:20:10;;;;;;;7.63;5.55;;;10.70;84.50;;;;;;5040268;28;20675;-75
2022/02/14 10:22:54;;;;;;;6.53;5.60;;;11.00;82.50;;;;;;5037105;28;20448;-75
2022/02/14 10:25:44;;;;;;;5.68;5.18;;;11.10;82.30;;;;;;5039720;28;20252;-74
2022/02/14 10:28:20;;;;;;;6.15;5.55;;;11.30;82.60;;;;;;5027775;28;20958;-74
2022/02/14 10:30:59;;;;;;;7.45;5.50;;;11.10;80.00;;;;;;5036527;28;20196;-74
2022/02/14 10:33:48;;;;;;;7.25;5.00;;;10.80;79.90;;;;;;5033219;28;20527;-74
2022/02/14 10:36:23;;;;;;;5.80;5.30;;;11.00;79.30;;;;;;5033255;28;20589;-75
2022/02/14 10:38:50;;;;;;;6.40;4.85;;;11.10;79.70;;;;;;5034403;28;20220;-74
2022/02/14 10:41:19;;;;;;;5.53;4.97;;;10.90;80.30;;;;;;5034662;28;20209;-75
2022/02/14 10:43:46;;;;;;;5.28;4.78;;;11.00;79.00;;;;;;5035457;28;20258;-74
2022/02/14 10:46:20;;;;;;;5.78;5.07;;;11.00;79.00;;;;;;5039558;28;20609;-73
2022/02/14 10:48:47;;;;;;;5.70;5.20;;;11.10;78.90;;;;;;5034910;28;20338;-73
2022/02/14 10:51:19;;;;;;;5.45;4.95;;;11.20;78.70;;;;;;5037322;28;20199;-74
2022/02/14 10:53:48;;;;;;;5.35;4.85;;;11.10;77.70;;;;;;5035491;28;20784;-74
2022/02/14 10:56:19;;;;;;;6.57;4.97;;;11.10;78.20;;;;;;5037091;28;20226;-76
2022/02/14 10:58:47;;;;;;;8.10;4.80;;;11.00;78.40;;;;;;5038329;28;20638;-76
2022/02/14 11:01:15;;;;;;;5.50;5.00;;;10.90;78.90;;;;;;5055185;28;20199;-75
2022/02/14 11:03:43;;;;;;;7.30;5.25;;;11.00;78.90;;;;;;5036851;28;20231;-76
2022/02/14 11:06:11;;;;;;;5.43;4.95;;;11.30;78.40;;;;;;5035481;28;20214;-76
2022/02/14 11:08:39;;;;;;;4.90;4.38;;;11.20;77.40;;;;;;5039357;28;20977;-74
2022/02/14 11:11:10;;;;;;;8.00;4.45;;;11.20;76.80;;;;;;5038905;28;20199;-75
2022/02/14 11:13:40;;;;;;;5.57;4.88;;;11.60;77.10;;;;;;5037495;28;20223;-73
2022/02/14 11:16:09;;;;;;;4.82;4.32;;;11.80;76.00;;;;;;5040577;28;20199;-74
2022/02/14 11:18:40;;;;;;;4.53;4.10;;;11.70;75.90;;;;;;5035521;28;20272;-76
2022/02/14 11:21:08;;;;;;;4.65;4.25;;;11.90;74.70;;;;;;5040692;28;20206;-73
2022/02/14 11:23:42;;;;;;;5.22;4.82;;;11.60;75.10;;;;;;5039439;28;20589;-76
2022/02/14 11:26:17;;;;;;;6.03;4.50;;;11.60;73.60;;;;;;5035259;28;20197;-75
2022/02/14 11:28:54;;;;;;;4.85;4.45;;;11.70;75.20;;;;;;5038470;28;20707;-76
2022/02/14 11:31:28;;;;;;;4.88;4.47;;;12.00;74.80;;;;;;5036384;28;20240;-76
2022/02/14 11:33:57;;;;;;;5.60;5.10;;;12.00;74.60;;;;;;5036722;28;20565;-74
2022/02/14 11:36:26;;;;;;;6.05;4.22;;;11.80;74.20;;;;;;5035097;28;20707;-75
2022/02/14 11:38:58;;;;;;;4.97;4.22;;;11.90;74.90;;;;;;5052403;22;21682;-70
2022/02/14 11:41:31;;;;;;;4.40;4.00;;;12.10;74.30;;;;;;5056614;28;20206;-70
2022/02/14 11:44:20;;;;;;;4.78;4.38;;;12.00;72.20;;;;;;5054718;28;20214;-72
2022/02/14 11:46:48;;;;;;;4.95;4.43;;;11.90;73.50;;;;;;5057427;28;20285;-73
2022/02/14 11:49:18;;;;;;;7.10;4.50;;;11.90;73.60;;;;;;5037881;28;20885;-69
2022/02/14 11:51:49;;;;;;;5.18;4.75;;;11.70;74.20;;;;;;5037358;28;20214;-71
2022/02/14 11:54:31;;;;;;;5.45;4.57;;;11.20;74.10;;;;;;5038592;28;20227;-71
2022/02/14 11:57:22;;;;;;;4.80;4.40;;;11.20;74.60;;;;;;5036766;28;20214;-72
2022/02/14 11:59:51;;;;;;;4.88;4.40;;;10.80;73.50;;;;;;5035948;28;20363;-69
2022/02/14 12:02:28;;;;;;;4.43;4.03;;;10.60;73.50;;;;;;5034678;28;20199;-70
2022/02/14 12:04:56;;;;;;;4.35;3.95;;;10.90;73.30;;;;;;5036184;28;20221;-72
2022/02/14 12:07:32;;;;;;;4.78;4.38;;;10.70;72.40;;;;;;5037614;28;20198;-71
2022/02/14 12:10:21;;;;;;;5.47;4.97;;;10.70;73.90;;;;;;5034519;28;20288;-71
2022/02/14 12:13:10;;;;;;;5.05;4.65;;;10.70;79.50;;;;;;5035864;28;20545;-74
2022/02/14 12:21:18;;;;;;;4.38;4.00;;;11.20;71.20;;;;;;5032623;28;20775;-67
2022/02/14 12:23:48;;;;;;;4.10;3.70;;;10.90;70.80;;;;;;5039796;28;20221;-70
2022/02/14 12:26:16;;;;;;;3.85;3.55;;;10.70;68.90;;;;;;5039405;28;20256;-69
2022/02/14 12:28:45;;;;;;;4.07;3.72;;;10.60;69.10;;;;;;5037566;28;20228;-68
2022/02/14 12:31:13;;;;;;;3.55;3.25;;;10.60;70.00;;;;;;5033930;28;20191;-67
2022/02/14 12:33:41;;;;;;;3.38;3.08;;;10.90;68.50;;;;;;5035471;28;20218;-68
2022/02/14 12:36:11;;;;;;;3.40;3.20;;;11.00;67.00;;;;;;5033825;28;20206;-69
2022/02/14 12:38:40;;;;;;;3.10;2.90;;;11.20;67.30;;;;;;5031060;28;20942;-69
2022/02/14 12:41:09;;;;;;;4.20;3.30;;;11.30;67.20;;;;;;5038925;28;20194;-67
2022/02/14 12:43:39;;;;;;;3.83;3.53;;;11.00;66.80;;;;;;5042483;28;20712;-68
2022/02/14 12:46:08;;;;;;;3.47;3.28;;;10.80;67.20;;;;;;5040723;28;20191;-68
2022/02/14 12:48:38;;;;;;;4.90;3.60;;;10.80;67.30;;;;;;5039658;28;20227;-71
2022/02/14 12:51:07;;;;;;;3.67;3.38;;;10.90;67.00;;;;;;5042991;28;20795;-68
2022/02/14 12:53:35;;;;;;;3.58;3.28;;;10.70;68.70;;;;;;5042374;28;20230;-69
2022/02/14 12:56:13;;;;;;;3.67;3.38;;;10.60;67.80;;;;;;5044511;28;20682;-70
2022/02/14 12:58:47;;;;;;;4.05;3.65;;;10.40;68.60;;;;;;5042893;28;20268;-67
2022/02/14 13:01:15;;;;;;;4.10;3.70;;;10.40;68.50;;;;;;5038926;28;20209;-69
2022/02/14 13:03:54;;;;;;;4.22;3.92;;;10.60;68.70;;;;;;5044639;28;20242;-72
2022/02/14 13:06:21;;;;;;;4.10;3.80;;;11.00;69.70;;;;;;5045712;28;20245;-69